Time;durP1;ratioP1;P1;durP2;ratioP2;P2;SDS_P1;SDS_P2;PMS_P1;PMS_P2;Temp;Humidity;BMP_temperature;BMP_pressure;BME280_temperature;BME280_humidity;BME280_pressure;Samples;Min_cycle;Max_cycle;Signal;HPM_P1;HPM_P2
2024/04/19 00:01:57;;;;;;;5.23;3.77;;;;;;;2.54;81.31;99824.38;5450220;26;20632;-60
2024/04/19 00:04:27;;;;;;;5.60;4.10;;;;;;;2.56;81.45;99825.28;5451621;26;20244;-59
2024/04/19 00:06:55;;;;;;;6.30;4.23;;;;;;;2.54;81.22;99815.09;5448688;26;20246;-61
2024/04/19 00:09:25;;;;;;;6.57;4.27;;;;;;;2.54;81.31;99819.28;5450363;26;20234;-60
2024/04/19 00:11:52;;;;;;;5.67;3.67;;;;;;;2.50;81.08;99807.38;5451373;26;20242;-59
2024/04/19 00:14:25;;;;;;;5.60;3.87;;;;;;;2.50;81.22;99820.06;5450553;26;20286;-60
2024/04/19 00:16:52;;;;;;;5.47;3.97;;;;;;;2.48;81.20;99811.59;5451747;26;20349;-60
2024/04/19 00:19:22;;;;;;;7.83;4.50;;;;;;;2.46;81.15;99811.53;5451684;26;20644;-61
2024/04/19 00:21:49;;;;;;;7.70;3.97;;;;;;;2.45;81.34;99809.84;5451661;26;20246;-60
2024/04/19 00:24:19;;;;;;;9.27;4.93;;;;;;;2.40;81.65;99807.22;5441935;26;20340;-61
2024/04/19 00:26:46;;;;;;;6.37;4.50;;;;;;;2.39;81.85;99810.59;5451317;26;20242;-59
2024/04/19 00:29:16;;;;;;;6.27;4.10;;;;;;;2.38;81.86;99806.31;5451682;26;20326;-63
2024/04/19 00:31:45;;;;;;;6.77;4.20;;;;;;;2.34;82.05;99807.09;5450795;26;20733;-62
2024/04/19 00:34:15;;;;;;;5.83;4.30;;;;;;;2.33;82.18;99810.47;5451101;26;20238;-64
2024/04/19 00:36:42;;;;;;;6.50;4.07;;;;;;;2.32;82.34;99808.78;5450847;26;20289;-61
2024/04/19 00:39:12;;;;;;;6.57;4.53;;;;;;;2.29;82.33;99807.88;5449674;26;20309;-60
2024/04/19 00:41:39;;;;;;;5.53;4.33;;;;;;;2.29;82.34;99805.31;5434624;26;20891;-58
2024/04/19 00:44:09;;;;;;;5.77;4.13;;;;;;;2.25;82.61;99798.47;5436299;26;20276;-61
2024/04/19 00:46:37;;;;;;;7.20;4.10;;;;;;;2.25;82.46;99806.94;5450841;26;20346;-61
2024/04/19 00:49:09;;;;;;;5.23;3.97;;;;;;;2.24;82.50;99801.81;5450981;26;20230;-60
2024/04/19 00:51:38;;;;;;;6.63;4.27;;;;;;;2.23;82.46;99811.13;5446617;26;20254;-60
2024/04/19 00:54:08;;;;;;;7.93;4.30;;;;;;;2.24;82.27;99804.38;5451017;26;20264;-60
2024/04/19 00:56:35;;;;;;;4.33;3.37;;;;;;;2.24;82.41;99810.31;5450748;26;20302;-61
2024/04/19 00:59:05;;;;;;;6.37;4.00;;;;;;;2.22;81.98;99806.88;5450703;26;20242;-59
2024/04/19 01:01:34;;;;;;;4.97;3.60;;;;;;;2.15;82.00;99794.91;5448819;26;20301;-61
2024/04/19 01:04:04;;;;;;;5.17;3.60;;;;;;;2.21;82.05;99802.66;5447725;26;20250;-60
2024/04/19 01:06:34;;;;;;;7.43;3.90;;;;;;;2.17;81.60;99798.31;5444894;26;20258;-60
2024/04/19 01:09:06;;;;;;;5.33;3.63;;;;;;;2.18;81.64;99810.22;5447126;26;20242;-60
2024/04/19 01:11:33;;;;;;;5.30;3.43;;;;;;;2.16;81.67;99796.59;5446980;26;20265;-60
2024/04/19 01:14:03;;;;;;;5.70;3.90;;;;;;;2.18;81.72;99800.91;5450878;26;20242;-60
2024/04/19 01:16:30;;;;;;;6.03;3.87;;;;;;;2.17;81.58;99796.66;5450870;26;20242;-62
2024/04/19 01:19:00;;;;;;;5.87;3.90;;;;;;;2.19;81.52;99796.66;5447391;26;21188;-60
2024/04/19 01:21:28;;;;;;;5.63;3.60;;;;;;;2.19;81.26;99786.50;5450034;26;20708;-61
2024/04/19 01:24:06;;;;;;;5.90;4.00;;;;;;;2.16;81.48;99791.53;5450854;26;20829;-60
2024/04/19 01:26:36;;;;;;;5.10;4.03;;;;;;;2.15;81.50;99792.34;5448947;26;20712;-62
2024/04/19 01:29:06;;;;;;;6.17;3.93;;;;;;;2.13;81.52;99778.75;5449700;26;20713;-60
2024/04/19 01:31:33;;;;;;;7.40;4.33;;;;;;;2.12;81.80;99787.22;5447203;26;20245;-62
2024/04/19 01:34:02;;;;;;;7.77;4.37;;;;;;;2.11;81.89;99790.59;5450560;26;20714;-61
2024/04/19 01:36:30;;;;;;;7.87;4.50;;;;;;;2.10;82.19;99784.66;5449608;26;20653;-60
2024/04/19 01:38:59;;;;;;;6.40;4.03;;;;;;;2.09;82.37;99784.59;5447178;26;20246;-61
2024/04/19 01:41:27;;;;;;;7.67;4.50;;;;;;;2.09;82.36;99789.69;5449946;26;20242;-61
2024/04/19 01:43:59;;;;;;;6.17;4.43;;;;;;;2.05;82.76;99781.16;5451019;26;20230;-61
2024/04/19 01:46:26;;;;;;;7.47;5.10;;;;;;;2.08;82.83;99783.75;5447727;26;20617;-62
2024/04/19 01:48:56;;;;;;;7.50;5.10;;;;;;;2.07;82.76;99787.13;5450703;26;20231;-60
2024/04/19 01:51:23;;;;;;;6.97;4.67;;;;;;;2.08;82.90;99782.91;5442441;26;20314;-62
2024/04/19 01:53:53;;;;;;;7.00;4.53;;;;;;;2.08;82.96;99785.44;5450340;26;20297;-60
2024/04/19 01:56:20;;;;;;;7.63;4.50;;;;;;;2.07;82.94;99778.66;5449984;26;20234;-61
2024/04/19 01:58:50;;;;;;;8.77;5.30;;;;;;;2.00;83.12;99774.28;5450181;26;20689;-61
2024/04/19 02:01:21;;;;;;;6.20;4.07;;;;;;;2.06;83.15;99784.56;5447482;26;21152;-62
2024/04/19 02:03:50;;;;;;;5.63;4.47;;;;;;;2.07;83.10;99781.19;5450114;26;20302;-62
2024/04/19 02:06:18;;;;;;;8.20;4.77;;;;;;;2.05;83.21;99783.69;5449152;26;20283;-62
2024/04/19 02:08:48;;;;;;;7.87;5.10;;;;;;;2.04;83.56;99787.06;5446315;26;20258;-62
2024/04/19 02:11:15;;;;;;;7.37;4.17;;;;;;;2.02;83.68;99782.78;5446968;26;20280;-60
2024/04/19 02:13:45;;;;;;;7.37;4.63;;;;;;;2.00;83.74;99789.53;5453702;26;20234;-62
2024/04/19 02:16:12;;;;;;;8.47;4.77;;;;;;;1.99;83.59;99772.56;5453880;26;20580;-62
2024/04/19 02:18:45;;;;;;;9.67;5.80;;;;;;;1.97;84.16;99776.78;5451443;26;20289;-60
2024/04/19 02:21:12;;;;;;;7.87;5.07;;;;;;;1.97;84.11;99779.31;5453245;26;20287;-62
2024/04/19 02:23:45;;;;;;;6.83;5.20;;;;;;;1.94;84.39;99775.88;5453945;26;20329;-62
2024/04/19 02:26:12;;;;;;;9.83;5.80;;;;;;;1.93;84.56;99769.09;5453542;26;20338;-62
2024/04/19 02:31:28;;;;;;;9.17;5.50;;;;;;;1.92;85.31;99769.06;5453595;26;20234;-61
2024/04/19 02:34:01;;;;;;;7.03;5.27;;;;;;;1.95;85.19;99771.66;5453090;26;20354;-62
2024/04/19 02:36:30;;;;;;;7.97;5.80;;;;;;;1.96;85.57;99767.44;5449860;26;20316;-63
2024/04/19 02:39:00;;;;;;;8.97;6.53;;;;;;;1.91;85.77;99759.72;5449156;26;20368;-60
2024/04/19 02:41:30;;;;;;;8.87;6.20;;;;;;;1.91;85.63;99760.59;5452688;26;20353;-61
2024/04/19 02:44:00;;;;;;;9.73;6.20;;;;;;;1.92;85.71;99774.16;5452895;26;20282;-61
2024/04/19 02:46:30;;;;;;;8.90;6.00;;;;;;;1.90;86.01;99766.47;5449704;26;20849;-62
2024/04/19 02:49:02;;;;;;;10.97;6.80;;;;;;;1.89;85.93;99759.69;5452998;26;20234;-62
2024/04/19 02:51:32;;;;;;;10.97;7.17;;;;;;;1.84;86.01;99761.31;5453365;26;20343;-62
2024/04/19 02:54:02;;;;;;;11.03;6.97;;;;;;;1.83;86.28;99762.13;5450222;26;20230;-64
2024/04/19 02:56:32;;;;;;;10.17;6.93;;;;;;;1.81;86.70;99760.41;5451543;26;20234;-62
2024/04/19 02:59:02;;;;;;;11.10;7.30;;;;;;;1.81;86.76;99756.16;5448609;26;20277;-63
2024/04/19 03:01:29;;;;;;;12.17;7.27;;;;;;;1.77;86.88;99746.78;5445993;26;20277;-62
2024/04/19 03:04:02;;;;;;;11.37;8.17;;;;;;;1.78;86.80;99758.63;5453108;26;20268;-63
2024/04/19 03:06:31;;;;;;;11.53;7.97;;;;;;;1.75;86.87;99760.25;5446643;26;20736;-61
2024/04/19 03:09:03;;;;;;;14.43;8.90;;;;;;;1.71;87.13;99745.78;5452209;26;20690;-61
2024/04/19 03:11:33;;;;;;;11.50;8.23;;;;;;;1.66;87.36;99741.50;5452363;26;21026;-63
2024/04/19 03:14:03;;;;;;;14.13;9.10;;;;;;;1.67;87.87;99744.88;5452018;26;20230;-63
2024/04/19 03:16:33;;;;;;;15.37;8.47;;;;;;;1.65;87.91;99741.44;5450784;26;20246;-61
2024/04/19 03:19:06;;;;;;;12.90;8.70;;;;;;;1.64;88.06;99737.19;5443909;26;20230;-62
2024/04/19 03:21:37;;;;;;;13.47;10.23;;;;;;;1.64;88.42;99735.50;5452687;26;20645;-62
2024/04/19 03:24:07;;;;;;;11.33;8.33;;;;;;;1.62;88.04;99729.56;5450216;26;20577;-61
2024/04/19 03:26:37;;;;;;;14.20;9.53;;;;;;;1.61;88.31;99724.44;5446029;26;20234;-62
2024/04/19 03:29:07;;;;;;;12.77;8.97;;;;;;;1.62;88.66;99727.03;5452268;26;20230;-62
2024/04/19 03:31:37;;;;;;;12.43;8.60;;;;;;;1.60;88.38;99725.28;5452827;26;20310;-62
2024/04/19 03:34:09;;;;;;;12.77;8.87;;;;;;;1.57;88.59;99722.66;5447572;26;20741;-61
2024/04/19 03:36:39;;;;;;;14.10;9.47;;;;;;;1.56;88.69;99728.59;5439540;26;20238;-61
2024/04/19 03:39:09;;;;;;;13.10;9.40;;;;;;;1.50;88.93;99721.69;5452436;26;20566;-62
2024/04/19 03:41:40;;;;;;;17.80;10.20;;;;;;;1.45;88.98;99724.16;5447683;26;20294;-62
2024/04/19 03:46:55;;;;;;;12.90;9.20;;;;;;;1.42;89.56;99718.16;5451858;26;20276;-61
2024/04/19 03:49:28;;;;;;;19.03;10.07;;;;;;;1.40;89.66;99707.97;5452480;26;20234;-60
2024/04/19 03:51:57;;;;;;;15.17;10.80;;;;;;;1.42;89.95;99713.06;5431791;26;20242;-62
2024/04/19 03:54:27;;;;;;;14.00;9.50;;;;;;;1.45;89.67;99714.00;5446895;26;20241;-61
2024/04/19 03:56:57;;;;;;;14.77;9.30;;;;;;;1.50;89.72;99706.47;5451827;26;20286;-63
2024/04/19 03:59:27;;;;;;;13.53;9.63;;;;;;;1.53;89.12;99710.75;5452670;26;20222;-63
2024/04/19 04:01:57;;;;;;;15.10;9.73;;;;;;;1.56;89.14;99710.81;5451942;26;20601;-62
2024/04/19 04:04:29;;;;;;;15.63;10.37;;;;;;;1.62;89.08;99708.38;5450125;26;20292;-61
2024/04/19 04:07:00;;;;;;;16.27;10.73;;;;;;;1.64;88.81;99710.13;5450951;26;20326;-60
2024/04/19 04:09:30;;;;;;;17.50;11.60;;;;;;;1.73;88.96;99713.66;5443025;26;20353;-62
2024/04/19 04:12:00;;;;;;;17.63;11.83;;;;;;;1.77;88.83;99711.22;5447741;26;20354;-63
2024/04/19 04:14:30;;;;;;;16.70;11.07;;;;;;;1.85;88.99;99712.22;5451206;26;20360;-61
2024/04/19 04:16:59;;;;;;;13.93;10.60;;;;;;;1.96;88.78;99720.03;5438186;26;20234;-61
2024/04/19 04:19:32;;;;;;;17.03;11.50;;;;;;;2.04;88.71;99705.75;5452325;26;20331;-62
2024/04/19 04:22:02;;;;;;;15.03;11.57;;;;;;;2.13;88.43;99715.22;5451403;26;20289;-63
2024/04/19 04:24:31;;;;;;;16.90;11.77;;;;;;;2.25;88.39;99702.75;5451656;26;20242;-62
2024/04/19 04:27:01;;;;;;;15.37;10.80;;;;;;;2.45;88.35;99702.19;5441762;26;20253;-61
2024/04/19 04:29:31;;;;;;;17.03;11.30;;;;;;;2.57;87.85;99700.66;5441785;26;20246;-62
2024/04/19 04:32:01;;;;;;;15.20;10.90;;;;;;;2.66;87.29;99708.47;5450516;26;20338;-61
2024/04/19 04:34:33;;;;;;;17.83;11.30;;;;;;;2.69;87.07;99711.84;5450510;26;20303;-61
2024/04/19 04:37:03;;;;;;;16.53;10.87;;;;;;;2.66;86.65;99705.91;5447777;26;20306;-62
2024/04/19 04:39:33;;;;;;;17.00;12.77;;;;;;;2.61;85.92;99699.91;5451369;26;20281;-61
2024/04/19 04:42:03;;;;;;;16.13;11.27;;;;;;;2.48;86.12;99699.69;5451969;26;20234;-61
2024/04/19 04:44:33;;;;;;;18.47;11.57;;;;;;;2.42;86.98;99695.34;5447528;26;20741;-62
2024/04/19 04:47:03;;;;;;;18.30;11.03;;;;;;;2.40;87.17;99702.97;5450293;26;20246;-63
2024/04/19 04:49:35;;;;;;;16.53;11.60;;;;;;;2.42;87.56;99708.91;5448053;26;20310;-62
2024/04/19 04:52:05;;;;;;;17.07;12.53;;;;;;;2.46;87.00;99708.97;5435818;26;20250;-62
2024/04/19 04:54:35;;;;;;;15.77;11.97;;;;;;;2.40;87.12;99697.03;5451185;26;20234;-62
2024/04/19 04:57:07;;;;;;;17.00;11.37;;;;;;;2.39;87.30;99691.09;5450701;26;20357;-63
2024/04/19 04:59:38;;;;;;;16.73;13.37;;;;;;;2.37;87.07;99697.84;5449584;26;20638;-62
2024/04/19 05:02:07;;;;;;;17.90;12.37;;;;;;;2.54;88.17;99693.03;5447082;26;20241;-63
2024/04/19 05:04:40;;;;;;;16.80;12.10;;;;;;;2.86;87.35;99690.91;5450896;26;20717;-62
2024/04/19 05:07:10;;;;;;;16.37;11.20;;;;;;;3.34;86.45;99688.97;5445817;26;20745;-62
2024/04/19 05:09:40;;;;;;;15.63;11.03;;;;;;;3.76;83.40;99683.53;5450963;26;20226;-60
2024/04/19 05:12:10;;;;;;;16.33;11.20;;;;;;;3.95;81.29;99679.44;5445456;26;20294;-60
2024/04/19 05:14:40;;;;;;;14.37;10.97;;;;;;;4.00;79.98;99676.94;5450063;26;20326;-62
2024/04/19 05:17:10;;;;;;;19.33;11.20;;;;;;;4.13;79.78;99667.72;5446626;26;20286;-63
2024/04/19 05:19:42;;;;;;;15.57;10.70;;;;;;;4.31;79.73;99670.41;5446634;26;20250;-62
2024/04/19 05:22:12;;;;;;;14.50;9.10;;;;;;;4.65;79.32;99668.94;5449483;26;20713;-63
2024/04/19 05:24:42;;;;;;;16.23;9.87;;;;;;;4.78;77.80;99665.59;5451410;26;20246;-63
2024/04/19 05:27:12;;;;;;;14.50;9.77;;;;;;;4.68;76.53;99670.66;5450580;26;20234;-62
2024/04/19 05:29:41;;;;;;;12.33;9.10;;;;;;;4.52;77.57;99667.13;5449416;26;20291;-62
2024/04/19 05:32:11;;;;;;;14.83;10.07;;;;;;;4.46;77.48;99673.06;5450229;26;20230;-62
2024/04/19 05:34:44;;;;;;;12.07;8.90;;;;;;;4.43;77.83;99677.28;5448536;26;20234;-62
2024/04/19 05:37:14;;;;;;;14.80;9.20;;;;;;;4.32;78.52;99669.56;5446622;26;20568;-61
2024/04/19 05:39:43;;;;;;;11.33;8.40;;;;;;;4.30;78.80;99672.09;5449541;26;20724;-62
2024/04/19 05:42:13;;;;;;;12.93;9.10;;;;;;;4.33;78.72;99671.25;5450347;26;20621;-62
2024/04/19 05:44:43;;;;;;;13.30;8.73;;;;;;;4.40;79.47;99672.16;5433140;26;20288;-62
2024/04/19 05:47:13;;;;;;;12.87;8.70;;;;;;;4.45;77.93;99661.13;5449545;26;20385;-61
2024/04/19 05:49:46;;;;;;;12.03;9.00;;;;;;;4.44;78.24;99666.25;5448966;26;20269;-61
2024/04/19 05:52:16;;;;;;;11.33;7.60;;;;;;;4.31;78.80;99655.97;5443078;26;20654;-61
2024/04/19 05:54:46;;;;;;;13.10;8.80;;;;;;;4.22;79.27;99655.88;5450079;26;22051;-60
2024/04/19 05:57:15;;;;;;;10.60;8.37;;;;;;;4.11;80.30;99652.38;5446496;26;20288;-60
2024/04/19 05:59:45;;;;;;;11.73;8.37;;;;;;;4.09;80.79;99646.44;5446264;26;20297;-62
2024/04/19 06:02:15;;;;;;;10.63;8.13;;;;;;;4.09;80.77;99651.53;5445658;26;20736;-62
2024/04/19 06:04:47;;;;;;;12.83;7.83;;;;;;;3.99;80.72;99645.50;5449293;26;20714;-60
2024/04/19 06:07:21;;;;;;;11.93;8.30;;;;;;;3.98;81.47;99637.84;5449356;26;20320;-60
2024/04/19 06:09:51;;;;;;;12.87;8.37;;;;;;;4.00;81.84;99642.09;5449130;26;20234;-60
2024/04/19 06:12:20;;;;;;;11.63;7.63;;;;;;;4.12;82.16;99636.25;5444411;26;20246;-59
2024/04/19 06:14:50;;;;;;;12.20;8.27;;;;;;;4.40;82.07;99633.91;5443012;26;20268;-60
2024/04/19 06:17:20;;;;;;;13.07;8.13;;;;;;;4.87;79.46;99629.06;5449560;26;20280;-60
2024/04/19 06:19:52;;;;;;;10.77;7.57;;;;;;;5.01;78.45;99634.25;5446279;26;20685;-63
2024/04/19 06:22:22;;;;;;;12.43;7.80;;;;;;;5.04;77.92;99629.13;5447865;26;20353;-62
2024/04/19 06:24:52;;;;;;;9.83;7.50;;;;;;;5.05;78.27;99625.75;5447494;26;20238;-62
2024/04/19 06:27:22;;;;;;;9.83;6.40;;;;;;;5.03;78.56;99627.44;5448498;26;20242;-63
2024/04/19 06:29:52;;;;;;;10.97;6.93;;;;;;;5.09;78.80;99628.31;5445817;26;20621;-63
2024/04/19 06:32:22;;;;;;;9.23;6.90;;;;;;;5.32;78.49;99630.09;5449119;26;20729;-62
2024/04/19 06:34:54;;;;;;;9.27;5.97;;;;;;;5.54;77.17;99619.06;5449806;26;20580;-62
2024/04/19 06:37:24;;;;;;;12.97;6.60;;;;;;;6.01;75.68;99607.22;5444430;26;20242;-62
2024/04/19 06:39:54;;;;;;;8.70;6.07;;;;;;;6.40;73.00;99608.88;5441481;26;20346;-64
2024/04/19 06:42:36;;;;;;;7.13;5.67;;;;;;;6.24;72.58;99599.53;5449792;26;20276;-62
2024/04/19 06:45:06;;;;;;;6.60;5.77;;;;;;;6.01;73.63;99599.56;5447609;26;20616;-63
2024/04/19 06:47:36;;;;;;;6.83;5.73;;;;;;;5.76;75.05;99594.41;5446468;26;20242;-63
2024/04/19 06:50:09;;;;;;;7.57;5.17;;;;;;;5.58;76.38;99602.03;5449721;26;20795;-63
2024/04/19 06:52:39;;;;;;;6.90;5.27;;;;;;;5.47;76.91;99593.50;5447389;26;20319;-63
2024/04/19 06:55:10;;;;;;;7.33;5.07;;;;;;;5.42;77.53;99597.78;5445131;26;20354;-60
2024/04/19 06:57:40;;;;;;;8.23;5.50;;;;;;;5.41;77.52;99588.38;5443558;26;20246;-61
2024/04/19 07:00:11;;;;;;;7.80;5.43;;;;;;;5.42;77.97;99595.22;5445994;26;20242;-64
2024/04/19 07:03:01;;;;;;;9.53;5.67;;;;;;;5.46;77.79;99595.22;5451305;26;20272;-61
2024/04/19 07:05:35;;;;;;;7.80;5.50;;;;;;;5.50;78.47;99585.84;5449607;26;20255;-60
2024/04/19 07:08:06;;;;;;;10.70;5.77;;;;;;;5.63;78.04;99586.72;5439676;26;20229;-61
2024/04/19 07:10:39;;;;;;;6.53;4.77;;;;;;;5.73;77.42;99576.50;5449663;26;20697;-62
2024/04/19 07:13:09;;;;;;;11.40;5.20;;;;;;;5.76;76.47;99570.53;5451822;26;20767;-61
2024/04/19 07:15:39;;;;;;;7.27;4.50;;;;;;;5.87;77.12;99555.22;5452200;26;20294;-62
2024/04/19 07:18:09;;;;;;;7.63;5.17;;;;;;;6.15;75.77;99566.28;5450464;26;20277;-60
2024/04/19 07:20:41;;;;;;;7.43;5.13;;;;;;;6.34;74.42;99567.13;5442641;26;20840;-62
2024/04/19 07:23:11;;;;;;;8.13;4.50;;;;;;;6.42;73.06;99557.72;5452474;26;20246;-62
2024/04/19 07:25:47;;;;;;;8.57;4.80;;;;;;;6.46;72.21;99561.97;5452392;26;20755;-63
2024/04/19 07:28:17;;;;;;;12.67;4.50;;;;;;;6.50;72.76;99549.16;5453077;26;20238;-63
2024/04/19 07:30:47;;;;;;;7.10;4.70;;;;;;;6.49;72.10;99546.59;5452220;26;20724;-63
2024/04/19 07:33:17;;;;;;;4.73;3.87;;;;;;;6.48;71.21;99547.44;5449081;26;20642;-62
2024/04/19 07:35:50;;;;;;;5.93;4.23;;;;;;;6.50;70.60;99543.19;5451419;26;20273;-64
2024/04/19 07:38:19;;;;;;;6.13;3.63;;;;;;;6.53;70.29;99544.03;5452038;26;20737;-62
2024/04/19 07:40:49;;;;;;;6.03;3.83;;;;;;;6.52;68.96;99551.72;5450538;26;20745;-65
2024/04/19 07:43:19;;;;;;;3.27;2.73;;;;;;;6.53;68.83;99540.63;5437492;26;21327;-64
2024/04/19 07:45:49;;;;;;;3.80;2.90;;;;;;;6.74;69.29;99535.41;5445174;26;20588;-64
2024/04/19 07:48:19;;;;;;;6.77;3.10;;;;;;;7.39;67.23;99532.47;5451606;26;20257;-64
2024/04/19 07:50:52;;;;;;;6.03;3.13;;;;;;;7.90;63.13;99530.38;5452068;26;20246;-63
2024/04/19 07:53:22;;;;;;;5.27;3.30;;;;;;;8.62;60.31;99533.09;5448642;26;20258;-66
2024/04/19 07:55:52;;;;;;;3.87;3.07;;;;;;;9.27;60.47;99521.94;5451571;26;20576;-63
2024/04/19 07:58:23;;;;;;;4.00;2.97;;;;;;;9.99;58.83;99518.22;5441281;26;20234;-60
2024/04/19 08:00:53;;;;;;;7.03;3.47;;;;;;;10.50;54.24;99516.44;5451734;26;20234;-65
2024/04/19 08:03:24;;;;;;;5.03;3.20;;;;;;;10.53;54.91;99506.06;5447206;26;20293;-65
2024/04/19 08:05:57;;;;;;;5.43;3.40;;;;;;;10.22;54.59;99512.66;5447140;26;20293;-65
2024/04/19 08:08:26;;;;;;;3.83;3.37;;;;;;;9.72;55.59;99528.09;5450261;26;20230;-65
2024/04/19 08:10:56;;;;;;;5.00;4.13;;;;;;;9.03;57.54;99536.00;5448927;26;20741;-67
2024/04/19 08:13:26;;;;;;;4.93;4.20;;;;;;;8.52;60.31;99525.50;5450275;26;20346;-64
2024/04/19 08:15:56;;;;;;;7.33;4.83;;;;;;;8.18;61.76;99528.41;5450850;26;20790;-62
2024/04/19 08:18:26;;;;;;;9.03;5.70;;;;;;;8.33;62.34;99527.41;5451694;26;20276;-63
2024/04/19 08:20:59;;;;;;;7.67;5.07;;;;;;;8.93;60.18;99527.56;5451093;26;20281;-62
2024/04/19 08:23:29;;;;;;;6.03;5.40;;;;;;;9.08;59.32;99516.22;5450001;26;20571;-64
2024/04/19 08:25:58;;;;;;;8.63;5.73;;;;;;;8.70;60.56;99515.00;5447284;26;20326;-61
2024/04/19 08:28:28;;;;;;;8.90;6.13;;;;;;;8.40;61.68;99522.22;5451539;26;20272;-64
2024/04/19 08:30:58;;;;;;;7.23;5.17;;;;;;;8.34;62.05;99509.41;5447869;26;20246;-62
2024/04/19 08:33:28;;;;;;;7.00;5.47;;;;;;;8.68;60.92;99520.16;5450089;26;20234;-63
2024/04/19 08:36:01;;;;;;;8.10;5.80;;;;;;;8.67;60.53;99505.63;5452013;26;20285;-63
2024/04/19 08:38:31;;;;;;;7.80;6.23;;;;;;;8.58;61.50;99495.47;5451578;26;20234;-63
2024/04/19 08:41:04;;;;;;;8.60;6.03;;;;;;;8.56;62.09;99499.75;5450947;26;20234;-61
2024/04/19 08:43:35;;;;;;;11.30;6.90;;;;;;;8.31;63.71;99506.84;5418464;26;20328;-63
2024/04/19 08:46:07;;;;;;;8.13;6.20;;;;;;;8.30;64.43;99512.03;5447957;26;20234;-65
2024/04/19 08:48:39;;;;;;;6.33;5.70;;;;;;;8.09;64.07;99506.22;5447043;26;20320;-63
2024/04/19 08:51:13;;;;;;;6.23;5.63;;;;;;;7.84;65.25;99503.09;5451479;26;20705;-62
2024/04/19 08:53:56;;;;;;;7.87;5.23;;;;;;;7.68;65.90;99499.78;5450289;26;20326;-62
2024/04/19 08:56:27;;;;;;;7.03;5.13;;;;;;;7.66;66.40;99501.53;5451677;26;20804;-62
2024/04/19 08:58:58;;;;;;;8.17;5.57;;;;;;;7.84;65.78;99504.78;5449276;26;20304;-62
2024/04/19 09:01:27;;;;;;;7.30;5.30;;;;;;;8.49;66.62;99490.44;5450905;26;20272;-63
2024/04/19 09:03:57;;;;;;;6.83;5.73;;;;;;;9.06;62.87;99487.13;5449439;26;20347;-65
2024/04/19 09:06:30;;;;;;;7.47;5.07;;;;;;;9.64;60.73;99487.03;5444419;26;21113;-64
2024/04/19 09:09:01;;;;;;;5.40;4.87;;;;;;;10.06;58.38;99502.63;5449945;26;20280;-60
2024/04/19 09:11:30;;;;;;;7.03;4.90;;;;;;;9.84;58.65;99488.44;5443515;26;20242;-60
2024/04/19 09:14:00;;;;;;;7.63;4.87;;;;;;;9.74;59.19;99490.31;5450473;26;20230;-59
2024/04/19 09:16:33;;;;;;;4.97;4.57;;;;;;;9.38;60.21;99484.06;5449946;26;20713;-62
2024/04/19 09:19:03;;;;;;;4.67;4.20;;;;;;;8.88;61.11;99483.94;5450169;26;20234;-60
2024/04/19 09:21:35;;;;;;;6.47;4.67;;;;;;;8.48;63.05;99481.03;5446988;26;20669;-62
2024/04/19 09:24:08;;;;;;;5.03;4.53;;;;;;;8.22;64.87;99487.28;5451764;26;20234;-61
2024/04/19 09:26:38;;;;;;;5.87;4.90;;;;;;;7.97;65.43;99486.69;5451865;26;20226;-60
2024/04/19 09:29:08;;;;;;;6.80;4.47;;;;;;;7.88;66.23;99491.94;5449454;26;20349;-60
2024/04/19 09:31:40;;;;;;;6.07;4.30;;;;;;;7.77;66.76;99482.59;5445811;26;20242;-62
2024/04/19 09:34:10;;;;;;;5.60;4.80;;;;;;;7.91;67.22;99491.03;5449700;26;20246;-61
2024/04/19 09:36:49;;;;;;;7.00;4.50;;;;;;;8.26;65.15;99475.28;5436251;26;20287;-61
2024/04/19 09:39:20;;;;;;;4.70;4.07;;;;;;;9.00;64.04;99467.50;5450885;26;20234;-62
2024/04/19 09:41:50;;;;;;;4.87;4.17;;;;;;;9.59;61.40;99460.56;5450196;26;20242;-59
2024/04/19 09:44:25;;;;;;;4.07;3.67;;;;;;;9.97;57.97;99458.19;5450366;26;20283;-59
2024/04/19 09:47:04;;;;;;;6.23;3.80;;;;;;;10.22;56.06;99461.16;5449634;26;20253;-61
2024/04/19 09:49:35;;;;;;;6.03;3.40;;;;;;;10.39;54.71;99456.56;5450318;26;20284;-63
2024/04/19 09:52:14;;;;;;;4.53;4.03;;;;;;;10.33;55.25;99451.53;5448441;26;20242;-62
2024/04/19 09:54:47;;;;;;;4.40;3.30;;;;;;;10.19;54.56;99456.06;5450537;26;20341;-62
2024/04/19 09:57:21;;;;;;;4.27;2.90;;;;;;;9.84;54.25;99447.28;5450553;26;20288;-62
2024/04/19 09:59:52;;;;;;;5.47;3.33;;;;;;;9.51;54.25;99444.44;5449503;26;20254;-63
2024/04/19 10:02:23;;;;;;;3.63;2.80;;;;;;;9.25;55.83;99433.72;5450465;26;20694;-63
2024/04/19 10:05:05;;;;;;;5.00;3.50;;;;;;;9.36;56.33;99427.53;5449549;26;20264;-63
2024/04/19 10:07:39;;;;;;;4.03;2.93;;;;;;;10.03;55.40;99434.91;5449678;26;20648;-61
2024/04/19 10:10:09;;;;;;;5.20;3.40;;;;;;;10.67;51.80;99427.63;5437966;26;20824;-63
2024/04/19 10:12:40;;;;;;;3.20;2.53;;;;;;;10.91;48.75;99421.94;5450650;26;20222;-65
2024/04/19 10:15:12;;;;;;;4.13;2.93;;;;;;;11.28;49.64;99418.50;5440812;26;20242;-61
2024/04/19 10:17:42;;;;;;;3.03;2.50;;;;;;;11.72;46.00;99406.19;5449875;26;20276;-62
2024/04/19 10:20:13;;;;;;;3.10;2.53;;;;;;;11.92;45.31;99403.94;5449359;26;20246;-63
2024/04/19 10:22:46;;;;;;;5.10;2.60;;;;;;;12.08;45.56;99389.72;5451013;26;20686;-62
2024/04/19 10:25:13;;;;;;;4.63;2.20;;;;;;;12.37;45.28;99389.75;5439247;26;20241;-61
2024/04/19 10:27:42;;;;;;;4.40;2.43;;;;;;;12.63;44.14;99388.97;5441247;26;20752;-63
2024/04/19 10:30:16;;;;;;;3.73;2.47;;;;;;;12.65;44.20;99402.72;5451058;26;20673;-62
2024/04/19 10:33:00;;;;;;;3.40;2.03;;;;;;;12.81;43.10;99384.13;5452042;26;20238;-64
2024/04/19 10:35:30;;;;;;;4.47;2.10;;;;;;;13.36;42.17;99380.66;5442197;26;20230;-62
2024/04/19 10:38:02;;;;;;;3.00;2.07;;;;;;;13.45;40.97;99370.84;5451317;26;20782;-62
2024/04/19 10:40:32;;;;;;;5.17;2.30;;;;;;;12.68;42.31;99366.44;5446604;26;20362;-59
2024/04/19 10:43:06;;;;;;;3.53;2.50;;;;;;;12.86;43.01;99376.22;5446075;26;20257;-63
2024/04/19 10:45:37;;;;;;;5.27;2.27;;;;;;;12.80;42.09;99373.81;5452041;26;20242;-63
2024/04/19 10:48:08;;;;;;;3.20;2.00;;;;;;;13.22;41.17;99373.34;5453175;26;20234;-63
2024/04/19 10:50:39;;;;;;;3.40;1.83;;;;;;;13.38;40.26;99347.81;5452258;26;20717;-63
2024/04/19 10:53:13;;;;;;;2.87;2.10;;;;;;;13.87;39.98;99361.63;5453669;26;20668;-63
2024/04/19 10:55:44;;;;;;;3.00;1.97;;;;;;;14.32;39.28;99363.41;5449836;26;20342;-64
2024/04/19 10:58:14;;;;;;;3.63;2.10;;;;;;;14.22;38.72;99339.59;5449526;26;20354;-63
2024/04/19 11:00:46;;;;;;;3.77;2.00;;;;;;;13.76;38.56;99365.44;5452063;26;20246;-63
2024/04/19 11:03:17;;;;;;;2.87;1.63;;;;;;;13.24;38.83;99359.47;5453866;26;20301;-63
2024/04/19 11:05:49;;;;;;;3.53;1.70;;;;;;;13.29;40.65;99351.53;5451922;26;20238;-64
2024/04/19 11:08:24;;;;;;;5.17;2.00;;;;;;;13.78;39.85;99352.44;5452680;26;20246;-61
2024/04/19 11:10:55;;;;;;;4.53;1.60;;;;;;;14.19;37.86;99342.31;5425272;26;20253;-63
2024/04/19 11:13:25;;;;;;;3.07;1.63;;;;;;;14.35;36.33;99333.03;5453402;26;20658;-65
2024/04/19 11:15:55;;;;;;;4.80;1.60;;;;;;;14.74;35.91;99327.25;5448705;26;20694;-62
2024/04/19 11:18:28;;;;;;;2.10;1.30;;;;;;;15.01;34.07;99324.44;5448123;26;20300;-62
2024/04/19 11:20:59;;;;;;;7.00;1.52;;;;;;;15.01;34.00;99324.44;5446442;26;21034;-63
2024/04/19 11:23:42;;;;;;;1.77;1.20;;;;;;;15.16;33.56;99316.00;5444286;26;20230;-63
2024/04/19 11:26:12;;;;;;;3.23;1.57;;;;;;;15.18;33.49;99325.41;5451211;26;20306;-65
2024/04/19 11:28:47;;;;;;;2.78;1.70;;;;;;;14.86;34.46;99313.75;5441184;26;20258;-63
2024/04/19 11:31:17;;;;;;;4.13;1.47;;;;;;;14.61;35.19;99308.72;5443565;26;20234;-66
2024/04/19 11:33:47;;;;;;;4.40;1.40;;;;;;;14.27;34.85;99315.19;5451743;26;20720;-62
2024/04/19 11:36:17;;;;;;;2.03;1.10;;;;;;;13.79;35.04;99325.66;5435050;26;21635;-63
2024/04/19 11:38:52;;;;;;;1.97;1.40;;;;;;;13.29;36.22;99317.91;5449196;26;20346;-63
2024/04/19 11:41:22;;;;;;;2.63;1.40;;;;;;;12.90;36.51;99315.75;5439478;26;20238;-64
2024/04/19 11:43:52;;;;;;;2.50;1.00;;;;;;;12.74;36.83;99315.41;5451070;26;20729;-65
2024/04/19 11:46:23;;;;;;;2.17;1.00;;;;;;;12.64;36.55;99302.81;5450689;26;20246;-64
2024/04/19 11:48:53;;;;;;;1.67;1.20;;;;;;;12.58;37.03;99304.69;5445228;26;20314;-66
2024/04/19 11:51:23;;;;;;;1.80;1.30;;;;;;;12.55;37.17;99297.03;5448965;26;20254;-64
2024/04/19 11:53:55;;;;;;;3.37;1.37;;;;;;;12.46;37.70;99293.91;5448759;26;20254;-64
2024/04/19 11:56:25;;;;;;;4.53;1.57;;;;;;;12.35;38.04;99306.31;5446761;26;20258;-64
2024/04/19 11:58:55;;;;;;;3.30;1.37;;;;;;;12.28;39.24;99297.91;5445311;26;20656;-65